sensor_id;sensor_type;location;lat;lon;timestamp;pressure;altitude;pressure_sealevel;temperature;humidity
10718;BME280;13513;42.700;23.124;2023-01-26T00:02:04;93279.36;;;-0.77;100.00
10718;BME280;13513;42.700;23.124;2023-01-26T00:04:35;93288.05;;;-0.92;100.00
10718;BME280;13513;42.700;23.124;2023-01-26T00:07:06;93288.60;;;-0.78;100.00
10718;BME280;13513;42.700;23.124;2023-01-26T00:09:37;93293.87;;;-0.94;100.00
10718;BME280;13513;42.700;23.124;2023-01-26T00:12:08;93306.05;;;-1.03;100.00
10718;BME280;13513;42.700;23.124;2023-01-26T00:14:39;93307.78;;;-0.87;100.00
10718;BME280;13513;42.700;23.124;2023-01-26T00:17:19;93299.84;;;-0.86;100.00
10718;BME280;13513;42.700;23.124;2023-01-26T00:19:57;93306.67;;;-0.93;100.00
10718;BME280;13513;42.700;23.124;2023-01-26T00:22:28;93299.03;;;-0.90;100.00
10718;BME280;13513;42.700;23.124;2023-01-26T00:24:59;93304.05;;;-0.89;100.00
10718;BME280;13513;42.700;23.124;2023-01-26T00:27:31;93294.18;;;-0.93;100.00
10718;BME280;13513;42.700;23.124;2023-01-26T00:29:59;93285.66;;;-1.02;100.00
10718;BME280;13513;42.700;23.124;2023-01-26T00:32:30;93284.50;;;-0.99;100.00
10718;BME280;13513;42.700;23.124;2023-01-26T00:35:01;93275.42;;;-0.99;100.00
10718;BME280;13513;42.700;23.124;2023-01-26T00:37:32;93275.28;;;-1.02;100.00
10718;BME280;13513;42.700;23.124;2023-01-26T00:40:02;93268.61;;;-0.96;100.00
10718;BME280;13513;42.700;23.124;2023-01-26T00:42:33;93267.65;;;-0.99;100.00
10718;BME280;13513;42.700;23.124;2023-01-26T00:45:05;93268.63;;;-1.00;100.00
10718;BME280;13513;42.700;23.124;2023-01-26T00:47:35;93269.57;;;-0.97;100.00
10718;BME280;13513;42.700;23.124;2023-01-26T00:50:06;93270.73;;;-1.04;100.00
10718;BME280;13513;42.700;23.124;2023-01-26T00:52:37;93259.07;;;-1.04;100.00
10718;BME280;13513;42.700;23.124;2023-01-26T00:55:08;93262.94;;;-1.00;100.00
10718;BME280;13513;42.700;23.124;2023-01-26T00:57:39;93252.76;;;-1.05;100.00
10718;BME280;13513;42.700;23.124;2023-01-26T01:00:12;93248.52;;;-0.98;100.00
10718;BME280;13513;42.700;23.124;2023-01-26T01:02:44;93251.42;;;-0.97;100.00
10718;BME280;13513;42.700;23.124;2023-01-26T01:05:15;93248.84;;;-1.01;100.00
10718;BME280;13513;42.700;23.124;2023-01-26T01:07:46;93250.81;;;-1.03;100.00
10718;BME280;13513;42.700;23.124;2023-01-26T01:10:18;93251.66;;;-1.15;100.00
10718;BME280;13513;42.700;23.124;2023-01-26T01:12:48;93245.84;;;-1.13;100.00
10718;BME280;13513;42.700;23.124;2023-01-26T01:15:20;93243.53;;;-1.08;100.00
10718;BME280;13513;42.700;23.124;2023-01-26T01:17:51;93248.11;;;-1.18;100.00
10718;BME280;13513;42.700;23.124;2023-01-26T01:20:22;93242.31;;;-1.24;100.00
10718;BME280;13513;42.700;23.124;2023-01-26T01:22:53;93240.20;;;-1.24;100.00
10718;BME280;13513;42.700;23.124;2023-01-26T01:25:24;93242.81;;;-1.28;100.00
10718;BME280;13513;42.700;23.124;2023-01-26T01:27:55;93242.19;;;-1.30;100.00
10718;BME280;13513;42.700;23.124;2023-01-26T01:30:26;93238.73;;;-1.23;100.00
10718;BME280;13513;42.700;23.124;2023-01-26T01:32:57;93227.73;;;-1.21;100.00
10718;BME280;13513;42.700;23.124;2023-01-26T01:35:27;93229.97;;;-1.14;100.00
10718;BME280;13513;42.700;23.124;2023-01-26T01:37:59;93229.45;;;-1.09;100.00
10718;BME280;13513;42.700;23.124;2023-01-26T01:40:29;93230.33;;;-1.21;100.00
10718;BME280;13513;42.700;23.124;2023-01-26T01:43:00;93224.45;;;-1.15;100.00
10718;BME280;13513;42.700;23.124;2023-01-26T01:45:42;93237.55;;;-1.12;100.00
10718;BME280;13513;42.700;23.124;2023-01-26T01:48:43;93232.37;;;-1.12;100.00
10718;BME280;13513;42.700;23.124;2023-01-26T01:51:22;93229.62;;;-1.15;100.00
10718;BME280;13513;42.700;23.124;2023-01-26T01:53:51;93224.75;;;-1.06;100.00
10718;BME280;13513;42.700;23.124;2023-01-26T01:56:26;93223.52;;;-1.26;100.00
10718;BME280;13513;42.700;23.124;2023-01-26T01:59:00;93220.62;;;-1.27;100.00
10718;BME280;13513;42.700;23.124;2023-01-26T02:01:30;93212.47;;;-1.16;100.00
10718;BME280;13513;42.700;23.124;2023-01-26T02:04:03;93214.98;;;-1.30;100.00
10718;BME280;13513;42.700;23.124;2023-01-26T02:06:46;93206.85;;;-1.23;100.00
10718;BME280;13513;42.700;23.124;2023-01-26T02:09:12;93206.73;;;-1.38;100.00
10718;BME280;13513;42.700;23.124;2023-01-26T02:11:45;93195.58;;;-1.38;100.00
10718;BME280;13513;42.700;23.124;2023-01-26T02:14:15;93189.23;;;-1.32;100.00
10718;BME280;13513;42.700;23.124;2023-01-26T02:16:46;93192.42;;;-1.26;100.00
10718;BME280;13513;42.700;23.124;2023-01-26T02:19:31;93183.86;;;-1.26;100.00
10718;BME280;13513;42.700;23.124;2023-01-26T02:21:59;93186.93;;;-1.27;100.00
10718;BME280;13513;42.700;23.124;2023-01-26T02:24:32;93178.34;;;-1.23;100.00
10718;BME280;13513;42.700;23.124;2023-01-26T02:27:02;93175.30;;;-1.31;100.00
10718;BME280;13513;42.700;23.124;2023-01-26T02:29:33;93166.70;;;-1.31;100.00
10718;BME280;13513;42.700;23.124;2023-01-26T02:32:04;93172.59;;;-1.41;100.00
10718;BME280;13513;42.700;23.124;2023-01-26T02:34:34;93168.00;;;-1.27;100.00
10718;BME280;13513;42.700;23.124;2023-01-26T02:37:11;93161.69;;;-1.29;100.00
10718;BME280;13513;42.700;23.124;2023-01-26T02:39:48;93157.05;;;-1.41;100.00
10718;BME280;13513;42.700;23.124;2023-01-26T02:42:18;93156.33;;;-1.31;100.00
10718;BME280;13513;42.700;23.124;2023-01-26T02:45:12;93151.03;;;-1.38;100.00
10718;BME280;13513;42.700;23.124;2023-01-26T02:47:41;93150.53;;;-1.33;100.00
10718;BME280;13513;42.700;23.124;2023-01-26T02:50:12;93145.84;;;-1.38;100.00
10718;BME280;13513;42.700;23.124;2023-01-26T02:52:42;93155.41;;;-1.34;100.00
10718;BME280;13513;42.700;23.124;2023-01-26T02:55:13;93147.96;;;-1.37;100.00
10718;BME280;13513;42.700;23.124;2023-01-26T02:57:52;93143.93;;;-1.40;100.00
10718;BME280;13513;42.700;23.124;2023-01-26T03:00:33;93131.66;;;-1.50;100.00
10718;BME280;13513;42.700;23.124;2023-01-26T03:03:07;93127.47;;;-1.51;100.00
10718;BME280;13513;42.700;23.124;2023-01-26T03:05:35;93127.51;;;-1.59;100.00
10718;BME280;13513;42.700;23.124;2023-01-26T03:08:07;93121.67;;;-1.61;100.00
10718;BME280;13513;42.700;23.124;2023-01-26T03:10:38;93121.78;;;-1.46;100.00
10718;BME280;13513;42.700;23.124;2023-01-26T03:13:12;93118.36;;;-1.43;100.00
10718;BME280;13513;42.700;23.124;2023-01-26T03:15:43;93116.94;;;-1.49;100.00
10718;BME280;13513;42.700;23.124;2023-01-26T03:18:23;93116.77;;;-1.48;100.00
10718;BME280;13513;42.700;23.124;2023-01-26T03:21:13;93113.27;;;-1.59;100.00
10718;BME280;13513;42.700;23.124;2023-01-26T03:24:00;93109.69;;;-1.58;100.00
10718;BME280;13513;42.700;23.124;2023-01-26T03:26:47;93107.92;;;-1.57;100.00
10718;BME280;13513;42.700;23.124;2023-01-26T03:29:34;93105.16;;;-1.56;100.00
10718;BME280;13513;42.700;23.124;2023-01-26T03:32:04;93108.45;;;-1.70;100.00
10718;BME280;13513;42.700;23.124;2023-01-26T03:34:35;93110.14;;;-1.54;100.00
10718;BME280;13513;42.700;23.124;2023-01-26T03:37:05;93098.47;;;-1.46;100.00
10718;BME280;13513;42.700;23.124;2023-01-26T03:39:36;93093.31;;;-1.50;100.00
10718;BME280;13513;42.700;23.124;2023-01-26T03:42:22;93092.97;;;-1.51;100.00
10718;BME280;13513;42.700;23.124;2023-01-26T03:45:10;93096.77;;;-1.62;100.00
10718;BME280;13513;42.700;23.124;2023-01-26T03:48:13;93084.22;;;-1.46;100.00
10718;BME280;13513;42.700;23.124;2023-01-26T03:51:00;93099.64;;;-1.57;100.00
10718;BME280;13513;42.700;23.124;2023-01-26T03:53:47;93092.31;;;-1.45;100.00
10718;BME280;13513;42.700;23.124;2023-01-26T03:56:35;93088.56;;;-1.43;100.00
10718;BME280;13513;42.700;23.124;2023-01-26T03:59:08;93085.18;;;-1.47;100.00
10718;BME280;13513;42.700;23.124;2023-01-26T04:01:41;93078.39;;;-1.48;100.00
10718;BME280;13513;42.700;23.124;2023-01-26T04:04:26;93077.05;;;-1.40;100.00
10718;BME280;13513;42.700;23.124;2023-01-26T04:07:12;93074.34;;;-1.47;100.00
10718;BME280;13513;42.700;23.124;2023-01-26T04:09:58;93060.52;;;-1.39;100.00
10718;BME280;13513;42.700;23.124;2023-01-26T04:12:29;93055.14;;;-1.34;100.00
10718;BME280;13513;42.700;23.124;2023-01-26T04:15:00;93047.00;;;-1.49;100.00
10718;BME280;13513;42.700;23.124;2023-01-26T04:17:47;93043.56;;;-1.46;100.00
10718;BME280;13513;42.700;23.124;2023-01-26T04:20:35;93038.55;;;-1.47;100.00
10718;BME280;13513;42.700;23.124;2023-01-26T04:23:22;93028.95;;;-1.39;100.00
10718;BME280;13513;42.700;23.124;2023-01-26T04:25:53;93033.40;;;-1.51;100.00
10718;BME280;13513;42.700;23.124;2023-01-26T04:28:24;93017.66;;;-1.46;100.00
10718;BME280;13513;42.700;23.124;2023-01-26T04:30:55;93033.03;;;-1.44;100.00
10718;BME280;13513;42.700;23.124;2023-01-26T04:33:26;93034.33;;;-1.44;100.00
10718;BME280;13513;42.700;23.124;2023-01-26T04:36:01;93030.47;;;-1.48;100.00
10718;BME280;13513;42.700;23.124;2023-01-26T04:38:29;93032.10;;;-1.51;100.00
10718;BME280;13513;42.700;23.124;2023-01-26T04:41:00;93031.77;;;-1.48;100.00
10718;BME280;13513;42.700;23.124;2023-01-26T04:43:31;93037.93;;;-1.49;100.00
10718;BME280;13513;42.700;23.124;2023-01-26T04:46:04;93037.23;;;-1.43;100.00
10718;BME280;13513;42.700;23.124;2023-01-26T04:48:34;93045.34;;;-1.42;100.00
10718;BME280;13513;42.700;23.124;2023-01-26T04:51:12;93035.70;;;-1.34;100.00
10718;BME280;13513;42.700;23.124;2023-01-26T04:53:39;93038.02;;;-1.39;100.00
10718;BME280;13513;42.700;23.124;2023-01-26T04:56:30;93038.22;;;-1.44;100.00
10718;BME280;13513;42.700;23.124;2023-01-26T04:58:44;93037.56;;;-1.42;100.00
10718;BME280;13513;42.700;23.124;2023-01-26T05:01:15;93033.52;;;-1.41;100.00
10718;BME280;13513;42.700;23.124;2023-01-26T05:03:45;93029.43;;;-1.39;100.00
10718;BME280;13513;42.700;23.124;2023-01-26T05:06:16;93029.01;;;-1.47;100.00
10718;BME280;13513;42.700;23.124;2023-01-26T05:08:47;93027.87;;;-1.48;100.00
10718;BME280;13513;42.700;23.124;2023-01-26T05:11:18;93027.73;;;-1.51;100.00
10718;BME280;13513;42.700;23.124;2023-01-26T05:13:49;93039.39;;;-1.51;100.00
10718;BME280;13513;42.700;23.124;2023-01-26T05:16:20;93030.36;;;-1.55;100.00
10718;BME280;13513;42.700;23.124;2023-01-26T05:18:50;93032.75;;;-1.49;100.00
10718;BME280;13513;42.700;23.124;2023-01-26T05:21:21;93031.03;;;-1.34;100.00
10718;BME280;13513;42.700;23.124;2023-01-26T05:23:52;93027.34;;;-1.40;100.00
10718;BME280;13513;42.700;23.124;2023-01-26T05:26:22;93025.13;;;-1.47;100.00
10718;BME280;13513;42.700;23.124;2023-01-26T05:28:52;93025.23;;;-1.40;100.00
10718;BME280;13513;42.700;23.124;2023-01-26T05:31:23;93018.80;;;-1.26;100.00
10718;BME280;13513;42.700;23.124;2023-01-26T05:33:54;93015.12;;;-1.31;100.00
10718;BME280;13513;42.700;23.124;2023-01-26T05:36:25;93015.06;;;-1.46;100.00
10718;BME280;13513;42.700;23.124;2023-01-26T05:38:55;93014.56;;;-1.41;100.00
10718;BME280;13513;42.700;23.124;2023-01-26T05:41:26;93011.23;;;-1.31;100.00
10718;BME280;13513;42.700;23.124;2023-01-26T05:43:57;93014.81;;;-1.32;100.00
10718;BME280;13513;42.700;23.124;2023-01-26T05:46:28;93021.80;;;-1.33;100.00
10718;BME280;13513;42.700;23.124;2023-01-26T05:48:59;93010.48;;;-1.36;100.00
10718;BME280;13513;42.700;23.124;2023-01-26T05:51:30;93010.75;;;-1.31;100.00
10718;BME280;13513;42.700;23.124;2023-01-26T05:54:01;93019.03;;;-1.35;100.00
10718;BME280;13513;42.700;23.124;2023-01-26T05:56:32;93021.08;;;-1.27;100.00
10718;BME280;13513;42.700;23.124;2023-01-26T05:59:02;93020.30;;;-1.31;100.00
10718;BME280;13513;42.700;23.124;2023-01-26T06:01:32;93030.52;;;-1.34;100.00
10718;BME280;13513;42.700;23.124;2023-01-26T06:04:03;93032.47;;;-1.32;100.00
10718;BME280;13513;42.700;23.124;2023-01-26T06:06:34;93020.30;;;-1.31;100.00
10718;BME280;13513;42.700;23.124;2023-01-26T06:09:04;93019.28;;;-1.22;100.00
10718;BME280;13513;42.700;23.124;2023-01-26T06:11:36;93029.06;;;-1.32;100.00
10718;BME280;13513;42.700;23.124;2023-01-26T06:14:07;93014.47;;;-1.29;100.00
10718;BME280;13513;42.700;23.124;2023-01-26T06:16:37;93016.41;;;-1.27;100.00
10718;BME280;13513;42.700;23.124;2023-01-26T06:19:09;93008.38;;;-1.18;100.00
10718;BME280;13513;42.700;23.124;2023-01-26T06:21:40;93014.13;;;-1.26;100.00
10718;BME280;13513;42.700;23.124;2023-01-26T06:24:12;93012.26;;;-1.18;100.00
10718;BME280;13513;42.700;23.124;2023-01-26T06:26:43;93015.66;;;-0.99;100.00
10718;BME280;13513;42.700;23.124;2023-01-26T06:29:14;93007.38;;;-1.13;100.00
10718;BME280;13513;42.700;23.124;2023-01-26T06:31:44;93001.58;;;-1.19;100.00
10718;BME280;13513;42.700;23.124;2023-01-26T06:34:15;93001.69;;;-1.12;100.00
10718;BME280;13513;42.700;23.124;2023-01-26T06:36:46;93003.90;;;-1.24;100.00
10718;BME280;13513;42.700;23.124;2023-01-26T06:39:19;93003.38;;;-1.01;100.00
10718;BME280;13513;42.700;23.124;2023-01-26T06:41:50;92992.82;;;-1.18;100.00
10718;BME280;13513;42.700;23.124;2023-01-26T06:44:20;93001.13;;;-1.04;100.00
10718;BME280;13513;42.700;23.124;2023-01-26T06:46:50;92995.20;;;-1.12;100.00
10718;BME280;13513;42.700;23.124;2023-01-26T06:49:21;92990.38;;;-0.97;100.00
10718;BME280;13513;42.700;23.124;2023-01-26T06:54:36;92982.73;;;-0.94;100.00
10718;BME280;13513;42.700;23.124;2023-01-26T06:57:08;92979.10;;;-1.04;100.00
10718;BME280;13513;42.700;23.124;2023-01-26T06:59:39;92983.80;;;-1.03;100.00
10718;BME280;13513;42.700;23.124;2023-01-26T07:02:18;92985.94;;;-0.88;100.00
10718;BME280;13513;42.700;23.124;2023-01-26T07:04:51;92989.66;;;-0.91;100.00
10718;BME280;13513;42.700;23.124;2023-01-26T07:07:22;92988.76;;;-0.79;100.00
10718;BME280;13513;42.700;23.124;2023-01-26T07:09:53;92989.97;;;-0.71;100.00
10718;BME280;13513;42.700;23.124;2023-01-26T07:12:36;92985.77;;;-0.58;100.00
10718;BME280;13513;42.700;23.124;2023-01-26T07:14:57;92977.86;;;-0.60;100.00
10718;BME280;13513;42.700;23.124;2023-01-26T07:17:28;92977.12;;;-0.54;100.00
10718;BME280;13513;42.700;23.124;2023-01-26T07:19:59;92977.12;;;-0.50;100.00
10718;BME280;13513;42.700;23.124;2023-01-26T07:22:30;92973.78;;;-0.44;100.00
10718;BME280;13513;42.700;23.124;2023-01-26T07:25:00;92964.35;;;-0.41;100.00
10718;BME280;13513;42.700;23.124;2023-01-26T07:27:31;92968.68;;;-0.38;100.00
10718;BME280;13513;42.700;23.124;2023-01-26T07:30:02;92971.81;;;-0.28;100.00
10718;BME280;13513;42.700;23.124;2023-01-26T07:32:34;92980.18;;;-0.36;100.00
10718;BME280;13513;42.700;23.124;2023-01-26T07:35:03;92969.58;;;-0.31;100.00
10718;BME280;13513;42.700;23.124;2023-01-26T07:37:34;92976.47;;;-0.38;100.00
10718;BME280;13513;42.700;23.124;2023-01-26T07:40:04;92978.20;;;-0.49;100.00
10718;BME280;13513;42.700;23.124;2023-01-26T07:42:36;92966.67;;;-0.32;100.00
10718;BME280;13513;42.700;23.124;2023-01-26T07:45:08;92965.05;;;-0.18;100.00
10718;BME280;13513;42.700;23.124;2023-01-26T07:47:39;92967.31;;;-0.05;100.00
10718;BME280;13513;42.700;23.124;2023-01-26T07:50:11;92974.56;;;0.00;100.00
10718;BME280;13513;42.700;23.124;2023-01-26T07:52:42;92975.53;;;-0.26;100.00
10718;BME280;13513;42.700;23.124;2023-01-26T07:55:13;92969.85;;;-0.01;100.00
10718;BME280;13513;42.700;23.124;2023-01-26T07:57:46;92967.70;;;-0.22;100.00
10718;BME280;13513;42.700;23.124;2023-01-26T08:00:16;92979.70;;;-0.11;100.00
10718;BME280;13513;42.700;23.124;2023-01-26T08:02:50;92973.67;;;-0.07;100.00
10718;BME280;13513;42.700;23.124;2023-01-26T08:05:20;92964.74;;;-0.19;100.00
10718;BME280;13513;42.700;23.124;2023-01-26T08:07:55;92956.67;;;-0.10;100.00
10718;BME280;13513;42.700;23.124;2023-01-26T08:10:24;92951.84;;;-0.13;100.00
10718;BME280;13513;42.700;23.124;2023-01-26T08:12:55;92960.56;;;-0.10;100.00
10718;BME280;13513;42.700;23.124;2023-01-26T08:15:27;92963.34;;;-0.11;100.00
10718;BME280;13513;42.700;23.124;2023-01-26T08:17:57;92952.21;;;-0.05;100.00
10718;BME280;13513;42.700;23.124;2023-01-26T08:20:28;92939.74;;;-0.06;100.00
10718;BME280;13513;42.700;23.124;2023-01-26T08:22:59;92928.25;;;0.03;100.00
10718;BME280;13513;42.700;23.124;2023-01-26T08:25:29;92930.61;;;0.09;100.00
10718;BME280;13513;42.700;23.124;2023-01-26T08:28:00;92945.36;;;-0.02;100.00
10718;BME280;13513;42.700;23.124;2023-01-26T08:30:31;92945.48;;;0.00;100.00
10718;BME280;13513;42.700;23.124;2023-01-26T08:33:02;92946.53;;;-0.05;100.00
10718;BME280;13513;42.700;23.124;2023-01-26T08:35:33;92944.88;;;-0.02;100.00
10718;BME280;13513;42.700;23.124;2023-01-26T08:38:05;92942.48;;;0.08;100.00
10718;BME280;13513;42.700;23.124;2023-01-26T08:40:35;92927.25;;;0.04;100.00
10718;BME280;13513;42.700;23.124;2023-01-26T08:43:05;92934.05;;;0.05;100.00
10718;BME280;13513;42.700;23.124;2023-01-26T08:45:36;92949.08;;;-0.01;100.00
10718;BME280;13513;42.700;23.124;2023-01-26T08:48:07;92953.45;;;-0.01;100.00
10718;BME280;13513;42.700;23.124;2023-01-26T08:50:37;92956.11;;;0.20;100.00
10718;BME280;13513;42.700;23.124;2023-01-26T08:53:09;92956.95;;;0.17;100.00
10718;BME280;13513;42.700;23.124;2023-01-26T08:55:40;92945.59;;;0.28;100.00
10718;BME280;13513;42.700;23.124;2023-01-26T08:58:11;92942.75;;;0.44;100.00
10718;BME280;13513;42.700;23.124;2023-01-26T09:00:42;92949.44;;;0.32;100.00
10718;BME280;13513;42.700;23.124;2023-01-26T09:03:12;92945.96;;;0.25;100.00
10718;BME280;13513;42.700;23.124;2023-01-26T09:05:41;92949.50;;;0.39;100.00
10718;BME280;13513;42.700;23.124;2023-01-26T09:08:12;92954.27;;;0.46;100.00
10718;BME280;13513;42.700;23.124;2023-01-26T09:10:43;92955.98;;;0.49;100.00
10718;BME280;13513;42.700;23.124;2023-01-26T09:13:14;92952.59;;;0.59;100.00
10718;BME280;13513;42.700;23.124;2023-01-26T09:15:45;92954.27;;;0.46;100.00
10718;BME280;13513;42.700;23.124;2023-01-26T09:18:16;92946.11;;;0.49;100.00
10718;BME280;13513;42.700;23.124;2023-01-26T09:20:47;92943.30;;;0.40;100.00
10718;BME280;13513;42.700;23.124;2023-01-26T09:23:20;92936.37;;;0.47;100.00
10718;BME280;13513;42.700;23.124;2023-01-26T09:25:53;92927.83;;;0.42;100.00
10718;BME280;13513;42.700;23.124;2023-01-26T09:28:24;92924.14;;;0.51;100.00
10718;BME280;13513;42.700;23.124;2023-01-26T09:31:01;92920.54;;;0.52;100.00
10718;BME280;13513;42.700;23.124;2023-01-26T09:33:28;92919.91;;;0.50;100.00
10718;BME280;13513;42.700;23.124;2023-01-26T09:36:07;92903.09;;;0.57;100.00
10718;BME280;13513;42.700;23.124;2023-01-26T09:38:38;92893.92;;;0.50;100.00
10718;BME280;13513;42.700;23.124;2023-01-26T09:41:21;92887.97;;;0.67;100.00
10718;BME280;13513;42.700;23.124;2023-01-26T09:43:56;92899.78;;;0.69;100.00
10718;BME280;13513;42.700;23.124;2023-01-26T09:49:09;92905.36;;;0.77;100.00
10718;BME280;13513;42.700;23.124;2023-01-26T09:51:40;92901.28;;;0.57;100.00
10718;BME280;13513;42.700;23.124;2023-01-26T09:54:30;92888.69;;;0.54;100.00
10718;BME280;13513;42.700;23.124;2023-01-26T09:57:01;92884.44;;;0.64;100.00
10718;BME280;13513;42.700;23.124;2023-01-26T10:02:28;92891.38;;;0.67;100.00
10718;BME280;13513;42.700;23.124;2023-01-26T10:04:57;92887.23;;;0.52;100.00
10718;BME280;13513;42.700;23.124;2023-01-26T10:07:28;92881.81;;;0.47;100.00
10718;BME280;13513;42.700;23.124;2023-01-26T10:09:59;92881.38;;;0.54;100.00
10718;BME280;13513;42.700;23.124;2023-01-26T10:12:36;92882.17;;;0.44;100.00
10718;BME280;13513;42.700;23.124;2023-01-26T10:17:52;92866.83;;;0.59;100.00
10718;BME280;13513;42.700;23.124;2023-01-26T10:20:38;92860.44;;;0.62;100.00
10718;BME280;13513;42.700;23.124;2023-01-26T10:23:18;92864.03;;;0.50;100.00
10718;BME280;13513;42.700;23.124;2023-01-26T10:25:46;92856.19;;;0.44;100.00
10718;BME280;13513;42.700;23.124;2023-01-26T10:28:32;92842.73;;;0.61;100.00
10718;BME280;13513;42.700;23.124;2023-01-26T10:30:52;92832.45;;;0.74;100.00
10718;BME280;13513;42.700;23.124;2023-01-26T10:33:35;92833.45;;;0.90;100.00
10718;BME280;13513;42.700;23.124;2023-01-26T10:35:57;92824.09;;;0.68;100.00
10718;BME280;13513;42.700;23.124;2023-01-26T10:41:06;92812.44;;;0.58;100.00
10718;BME280;13513;42.700;23.124;2023-01-26T10:43:41;92807.64;;;0.72;100.00
10718;BME280;13513;42.700;23.124;2023-01-26T10:46:29;92804.48;;;0.66;100.00
10718;BME280;13513;42.700;23.124;2023-01-26T10:49:02;92793.83;;;0.71;100.00
10718;BME280;13513;42.700;23.124;2023-01-26T10:51:38;92800.11;;;0.66;100.00
10718;BME280;13513;42.700;23.124;2023-01-26T10:54:26;92791.48;;;0.83;100.00
10718;BME280;13513;42.700;23.124;2023-01-26T10:57:10;92779.14;;;0.91;100.00
10718;BME280;13513;42.700;23.124;2023-01-26T10:59:47;92770.75;;;0.89;100.00
10718;BME280;13513;42.700;23.124;2023-01-26T11:02:18;92757.06;;;0.98;100.00
10718;BME280;13513;42.700;23.124;2023-01-26T11:07:43;92745.47;;;1.24;100.00
10718;BME280;13513;42.700;23.124;2023-01-26T11:10:25;92734.66;;;1.20;100.00
10718;BME280;13513;42.700;23.124;2023-01-26T11:13:20;92734.70;;;1.33;100.00
10718;BME280;13513;42.700;23.124;2023-01-26T11:15:59;92730.59;;;1.28;100.00
10718;BME280;13513;42.700;23.124;2023-01-26T11:18:47;92731.73;;;1.19;100.00
10718;BME280;13513;42.700;23.124;2023-01-26T11:21:24;92725.28;;;1.02;100.00
10718;BME280;13513;42.700;23.124;2023-01-26T11:23:59;92721.75;;;1.16;100.00
10718;BME280;13513;42.700;23.124;2023-01-26T11:29:38;92698.09;;;1.11;100.00
10718;BME280;13513;42.700;23.124;2023-01-26T11:38:26;92706.77;;;0.95;100.00
10718;BME280;13513;42.700;23.124;2023-01-26T11:46:15;92685.17;;;0.54;100.00
10718;BME280;13513;42.700;23.124;2023-01-26T11:54:16;92680.62;;;0.62;100.00
10718;BME280;13513;42.700;23.124;2023-01-26T11:56:49;92678.31;;;0.63;100.00
10718;BME280;13513;42.700;23.124;2023-01-26T11:59:29;92670.66;;;0.49;100.00
10718;BME280;13513;42.700;23.124;2023-01-26T12:02:03;92672.91;;;0.58;100.00
10718;BME280;13513;42.700;23.124;2023-01-26T12:04:34;92666.55;;;0.50;100.00
10718;BME280;13513;42.700;23.124;2023-01-26T12:07:10;92655.72;;;0.40;100.00
10718;BME280;13513;42.700;23.124;2023-01-26T12:09:44;92656.37;;;0.49;100.00
10718;BME280;13513;42.700;23.124;2023-01-26T12:15:01;92642.80;;;0.60;100.00
10718;BME280;13513;42.700;23.124;2023-01-26T12:17:41;92639.41;;;0.59;100.00
10718;BME280;13513;42.700;23.124;2023-01-26T12:20:25;92630.83;;;0.65;100.00
10718;BME280;13513;42.700;23.124;2023-01-26T12:26:02;92618.94;;;0.67;100.00
10718;BME280;13513;42.700;23.124;2023-01-26T12:29:00;92615.57;;;0.73;100.00
10718;BME280;13513;42.700;23.124;2023-01-26T12:33:50;92604.38;;;0.79;100.00
10718;BME280;13513;42.700;23.124;2023-01-26T12:39:20;92613.20;;;0.84;100.00
10718;BME280;13513;42.700;23.124;2023-01-26T12:44:40;92617.20;;;0.87;100.00
10718;BME280;13513;42.700;23.124;2023-01-26T12:55:51;92592.93;;;0.97;100.00
10718;BME280;13513;42.700;23.124;2023-01-26T12:58:39;92595.33;;;0.92;100.00
10718;BME280;13513;42.700;23.124;2023-01-26T13:01:11;92592.02;;;0.94;100.00
10718;BME280;13513;42.700;23.124;2023-01-26T13:03:50;92586.13;;;0.89;100.00
10718;BME280;13513;42.700;23.124;2023-01-26T13:06:19;92572.42;;;0.91;100.00
10718;BME280;13513;42.700;23.124;2023-01-26T13:09:16;92568.61;;;0.87;100.00
10718;BME280;13513;42.700;23.124;2023-01-26T13:11:55;92583.34;;;0.97;100.00
10718;BME280;13513;42.700;23.124;2023-01-26T13:19:55;92577.33;;;0.97;100.00
10718;BME280;13513;42.700;23.124;2023-01-26T13:22:37;92579.25;;;0.99;100.00
10718;BME280;13513;42.700;23.124;2023-01-26T13:25:28;92574.45;;;1.09;100.00
10718;BME280;13513;42.700;23.124;2023-01-26T13:28:02;92565.92;;;0.98;100.00
10718;BME280;13513;42.700;23.124;2023-01-26T13:30:46;92565.72;;;0.99;100.00
10718;BME280;13513;42.700;23.124;2023-01-26T13:33:20;92571.84;;;1.09;100.00
10718;BME280;13513;42.700;23.124;2023-01-26T13:35:55;92571.94;;;0.98;100.00
10718;BME280;13513;42.700;23.124;2023-01-26T13:38:34;92573.44;;;1.03;100.00
10718;BME280;13513;42.700;23.124;2023-01-26T13:41:08;92576.36;;;1.11;100.00
10718;BME280;13513;42.700;23.124;2023-01-26T13:43:48;92564.56;;;1.08;100.00
10718;BME280;13513;42.700;23.124;2023-01-26T13:48:56;92569.34;;;1.05;100.00
10718;BME280;13513;42.700;23.124;2023-01-26T13:51:33;92559.94;;;1.17;100.00
10718;BME280;13513;42.700;23.124;2023-01-26T13:54:12;92559.52;;;1.00;100.00
10718;BME280;13513;42.700;23.124;2023-01-26T13:57:01;92550.55;;;1.09;100.00
10718;BME280;13513;42.700;23.124;2023-01-26T13:59:31;92547.03;;;1.13;100.00
10718;BME280;13513;42.700;23.124;2023-01-26T14:02:01;92534.03;;;1.13;100.00
10718;BME280;13513;42.700;23.124;2023-01-26T14:04:32;92529.73;;;1.09;100.00
10718;BME280;13513;42.700;23.124;2023-01-26T14:07:11;92528.14;;;1.15;100.00
10718;BME280;13513;42.700;23.124;2023-01-26T14:09:47;92541.93;;;1.15;100.00
10718;BME280;13513;42.700;23.124;2023-01-26T14:12:26;92536.55;;;1.30;100.00
10718;BME280;13513;42.700;23.124;2023-01-26T14:15:00;92538.54;;;1.28;100.00
10718;BME280;13513;42.700;23.124;2023-01-26T14:17:45;92545.76;;;1.26;100.00
10718;BME280;13513;42.700;23.124;2023-01-26T14:20:23;92540.45;;;1.36;100.00
10718;BME280;13513;42.700;23.124;2023-01-26T14:25:32;92535.53;;;1.44;100.00
10718;BME280;13513;42.700;23.124;2023-01-26T14:28:04;92526.42;;;1.57;100.00